sensor_id;sensor_type;location;lat;lon;timestamp;P1;durP1;ratioP1;P2;durP2;ratioP2
20545;SDS011;10431;50.228;9.112;2023-04-25T00:00:30;3.65;;;2.90;;
20545;SDS011;10431;50.228;9.112;2023-04-25T00:02:56;4.35;;;2.83;;
20545;SDS011;10431;50.228;9.112;2023-04-25T00:05:23;10.23;;;3.03;;
20545;SDS011;10431;50.228;9.112;2023-04-25T00:07:49;3.50;;;2.88;;
20545;SDS011;10431;50.228;9.112;2023-04-25T00:10:16;3.58;;;2.63;;
20545;SDS011;10431;50.228;9.112;2023-04-25T00:12:42;3.78;;;2.92;;
20545;SDS011;10431;50.228;9.112;2023-04-25T00:15:08;4.45;;;2.80;;
20545;SDS011;10431;50.228;9.112;2023-04-25T00:17:35;4.25;;;2.72;;
20545;SDS011;10431;50.228;9.112;2023-04-25T00:20:01;4.90;;;2.70;;
20545;SDS011;10431;50.228;9.112;2023-04-25T00:22:30;4.35;;;2.70;;
20545;SDS011;10431;50.228;9.112;2023-04-25T00:24:57;2.97;;;2.70;;
20545;SDS011;10431;50.228;9.112;2023-04-25T00:27:26;3.15;;;2.85;;
20545;SDS011;10431;50.228;9.112;2023-04-25T00:29:52;4.35;;;2.70;;
20545;SDS011;10431;50.228;9.112;2023-04-25T00:32:18;3.95;;;2.83;;
20545;SDS011;10431;50.228;9.112;2023-04-25T00:34:45;4.30;;;2.85;;
20545;SDS011;10431;50.228;9.112;2023-04-25T00:37:11;3.30;;;2.50;;
20545;SDS011;10431;50.228;9.112;2023-04-25T00:39:38;3.03;;;2.30;;
20545;SDS011;10431;50.228;9.112;2023-04-25T00:42:04;3.38;;;2.80;;
20545;SDS011;10431;50.228;9.112;2023-04-25T00:44:31;2.75;;;2.55;;
20545;SDS011;10431;50.228;9.112;2023-04-25T00:46:57;3.20;;;2.50;;
20545;SDS011;10431;50.228;9.112;2023-04-25T00:49:25;3.25;;;2.65;;
20545;SDS011;10431;50.228;9.112;2023-04-25T00:51:51;4.80;;;2.47;;
20545;SDS011;10431;50.228;9.112;2023-04-25T00:54:17;4.07;;;2.70;;
20545;SDS011;10431;50.228;9.112;2023-04-25T00:56:44;2.83;;;2.53;;
20545;SDS011;10431;50.228;9.112;2023-04-25T00:59:11;2.90;;;2.60;;
20545;SDS011;10431;50.228;9.112;2023-04-25T01:01:38;2.95;;;2.55;;
20545;SDS011;10431;50.228;9.112;2023-04-25T01:04:05;3.75;;;2.58;;
20545;SDS011;10431;50.228;9.112;2023-04-25T01:06:31;3.05;;;2.60;;
20545;SDS011;10431;50.228;9.112;2023-04-25T01:08:57;3.72;;;2.67;;
20545;SDS011;10431;50.228;9.112;2023-04-25T01:11:24;3.58;;;2.50;;
20545;SDS011;10431;50.228;9.112;2023-04-25T01:13:51;2.80;;;2.50;;
20545;SDS011;10431;50.228;9.112;2023-04-25T01:16:17;3.63;;;2.55;;
20545;SDS011;10431;50.228;9.112;2023-04-25T01:18:43;3.28;;;2.70;;
20545;SDS011;10431;50.228;9.112;2023-04-25T01:21:11;2.95;;;2.67;;
20545;SDS011;10431;50.228;9.112;2023-04-25T01:23:39;3.88;;;2.70;;
20545;SDS011;10431;50.228;9.112;2023-04-25T01:26:06;3.28;;;2.70;;
20545;SDS011;10431;50.228;9.112;2023-04-25T01:28:36;2.70;;;2.50;;
20545;SDS011;10431;50.228;9.112;2023-04-25T01:31:05;3.40;;;2.63;;
20545;SDS011;10431;50.228;9.112;2023-04-25T01:33:31;3.33;;;3.00;;
20545;SDS011;10431;50.228;9.112;2023-04-25T01:35:57;3.40;;;2.90;;
20545;SDS011;10431;50.228;9.112;2023-04-25T01:38:24;3.22;;;2.80;;
20545;SDS011;10431;50.228;9.112;2023-04-25T01:40:50;3.00;;;2.70;;
20545;SDS011;10431;50.228;9.112;2023-04-25T01:43:18;3.95;;;3.00;;
20545;SDS011;10431;50.228;9.112;2023-04-25T01:45:45;3.03;;;2.72;;
20545;SDS011;10431;50.228;9.112;2023-04-25T01:48:12;3.22;;;2.92;;
20545;SDS011;10431;50.228;9.112;2023-04-25T01:50:40;3.30;;;2.60;;
20545;SDS011;10431;50.228;9.112;2023-04-25T01:53:07;3.38;;;2.65;;
20545;SDS011;10431;50.228;9.112;2023-04-25T01:55:35;3.30;;;2.70;;
20545;SDS011;10431;50.228;9.112;2023-04-25T01:58:07;4.45;;;2.60;;
20545;SDS011;10431;50.228;9.112;2023-04-25T02:01:07;3.53;;;2.53;;
20545;SDS011;10431;50.228;9.112;2023-04-25T02:03:41;3.17;;;2.55;;
20545;SDS011;10431;50.228;9.112;2023-04-25T02:06:13;3.95;;;2.60;;
20545;SDS011;10431;50.228;9.112;2023-04-25T02:08:43;4.18;;;2.75;;
20545;SDS011;10431;50.228;9.112;2023-04-25T02:11:11;3.25;;;2.65;;
20545;SDS011;10431;50.228;9.112;2023-04-25T02:13:43;3.88;;;3.00;;
20545;SDS011;10431;50.228;9.112;2023-04-25T02:16:24;3.65;;;2.85;;
20545;SDS011;10431;50.228;9.112;2023-04-25T02:18:51;3.10;;;2.80;;
20545;SDS011;10431;50.228;9.112;2023-04-25T02:21:18;2.90;;;2.47;;
20545;SDS011;10431;50.228;9.112;2023-04-25T02:23:45;3.85;;;2.90;;
20545;SDS011;10431;50.228;9.112;2023-04-25T02:26:14;3.35;;;2.58;;
20545;SDS011;10431;50.228;9.112;2023-04-25T02:28:41;3.72;;;2.60;;
20545;SDS011;10431;50.228;9.112;2023-04-25T02:31:07;3.45;;;2.83;;
20545;SDS011;10431;50.228;9.112;2023-04-25T02:33:33;4.40;;;2.92;;
20545;SDS011;10431;50.228;9.112;2023-04-25T02:36:00;3.05;;;2.60;;
20545;SDS011;10431;50.228;9.112;2023-04-25T02:38:26;3.03;;;2.60;;
20545;SDS011;10431;50.228;9.112;2023-04-25T02:40:52;3.17;;;2.45;;
20545;SDS011;10431;50.228;9.112;2023-04-25T02:43:18;3.38;;;2.60;;
20545;SDS011;10431;50.228;9.112;2023-04-25T02:45:44;2.97;;;2.40;;
20545;SDS011;10431;50.228;9.112;2023-04-25T02:48:11;3.38;;;2.70;;
20545;SDS011;10431;50.228;9.112;2023-04-25T02:50:37;3.10;;;2.72;;
20545;SDS011;10431;50.228;9.112;2023-04-25T02:53:03;3.40;;;2.40;;
20545;SDS011;10431;50.228;9.112;2023-04-25T02:55:36;4.28;;;2.60;;
20545;SDS011;10431;50.228;9.112;2023-04-25T02:58:04;3.15;;;2.42;;
20545;SDS011;10431;50.228;9.112;2023-04-25T03:00:39;3.08;;;2.33;;
20545;SDS011;10431;50.228;9.112;2023-04-25T03:03:05;4.18;;;2.58;;
20545;SDS011;10431;50.228;9.112;2023-04-25T03:05:31;3.88;;;2.72;;
20545;SDS011;10431;50.228;9.112;2023-04-25T03:07:58;4.57;;;2.38;;
20545;SDS011;10431;50.228;9.112;2023-04-25T03:10:25;3.28;;;2.70;;
20545;SDS011;10431;50.228;9.112;2023-04-25T03:12:53;2.65;;;2.45;;
20545;SDS011;10431;50.228;9.112;2023-04-25T03:15:19;3.30;;;2.25;;
20545;SDS011;10431;50.228;9.112;2023-04-25T03:17:45;4.55;;;2.67;;
20545;SDS011;10431;50.228;9.112;2023-04-25T03:20:11;3.63;;;2.67;;
20545;SDS011;10431;50.228;9.112;2023-04-25T03:22:38;3.95;;;2.60;;
20545;SDS011;10431;50.228;9.112;2023-04-25T03:25:04;3.08;;;2.60;;
20545;SDS011;10431;50.228;9.112;2023-04-25T03:27:31;3.90;;;2.90;;
20545;SDS011;10431;50.228;9.112;2023-04-25T03:29:57;3.35;;;2.72;;
20545;SDS011;10431;50.228;9.112;2023-04-25T03:32:24;3.75;;;3.22;;
20545;SDS011;10431;50.228;9.112;2023-04-25T03:34:50;3.88;;;2.50;;
20545;SDS011;10431;50.228;9.112;2023-04-25T03:37:16;3.10;;;2.80;;
20545;SDS011;10431;50.228;9.112;2023-04-25T03:39:43;4.22;;;2.78;;
20545;SDS011;10431;50.228;9.112;2023-04-25T03:42:10;2.40;;;2.20;;
20545;SDS011;10431;50.228;9.112;2023-04-25T03:44:36;2.95;;;2.50;;
20545;SDS011;10431;50.228;9.112;2023-04-25T03:47:02;2.88;;;2.60;;
20545;SDS011;10431;50.228;9.112;2023-04-25T03:49:29;2.58;;;2.35;;
20545;SDS011;10431;50.228;9.112;2023-04-25T03:52:01;3.38;;;2.40;;
20545;SDS011;10431;50.228;9.112;2023-04-25T03:54:32;3.05;;;2.75;;
20545;SDS011;10431;50.228;9.112;2023-04-25T03:57:04;3.47;;;2.53;;
20545;SDS011;10431;50.228;9.112;2023-04-25T03:59:33;4.00;;;2.60;;
20545;SDS011;10431;50.228;9.112;2023-04-25T04:01:59;2.40;;;2.15;;
20545;SDS011;10431;50.228;9.112;2023-04-25T04:04:26;2.88;;;2.58;;
20545;SDS011;10431;50.228;9.112;2023-04-25T04:06:52;4.70;;;2.45;;
20545;SDS011;10431;50.228;9.112;2023-04-25T04:09:24;3.83;;;2.50;;
20545;SDS011;10431;50.228;9.112;2023-04-25T04:11:51;2.78;;;2.22;;
20545;SDS011;10431;50.228;9.112;2023-04-25T04:14:17;5.30;;;2.20;;
20545;SDS011;10431;50.228;9.112;2023-04-25T04:16:45;2.67;;;2.33;;
20545;SDS011;10431;50.228;9.112;2023-04-25T04:19:11;3.78;;;2.60;;
20545;SDS011;10431;50.228;9.112;2023-04-25T04:21:41;2.95;;;2.65;;
20545;SDS011;10431;50.228;9.112;2023-04-25T04:24:09;3.15;;;2.22;;
20545;SDS011;10431;50.228;9.112;2023-04-25T04:26:47;3.08;;;2.70;;
20545;SDS011;10431;50.228;9.112;2023-04-25T04:29:32;4.30;;;2.65;;
20545;SDS011;10431;50.228;9.112;2023-04-25T04:32:07;3.42;;;2.40;;
20545;SDS011;10431;50.228;9.112;2023-04-25T04:34:35;2.88;;;2.50;;
20545;SDS011;10431;50.228;9.112;2023-04-25T04:37:02;4.57;;;2.70;;
20545;SDS011;10431;50.228;9.112;2023-04-25T04:39:28;5.38;;;2.90;;
20545;SDS011;10431;50.228;9.112;2023-04-25T04:42:06;3.50;;;2.97;;
20545;SDS011;10431;50.228;9.112;2023-04-25T04:45:01;3.83;;;3.08;;
20545;SDS011;10431;50.228;9.112;2023-04-25T04:48:05;4.65;;;3.00;;
20545;SDS011;10431;50.228;9.112;2023-04-25T04:50:55;4.55;;;2.80;;
20545;SDS011;10431;50.228;9.112;2023-04-25T04:53:39;4.18;;;2.80;;
20545;SDS011;10431;50.228;9.112;2023-04-25T04:56:16;5.72;;;2.80;;
20545;SDS011;10431;50.228;9.112;2023-04-25T04:59:14;6.32;;;2.72;;
20545;SDS011;10431;50.228;9.112;2023-04-25T05:02:02;4.25;;;2.97;;
20545;SDS011;10431;50.228;9.112;2023-04-25T05:04:51;5.40;;;2.72;;
20545;SDS011;10431;50.228;9.112;2023-04-25T05:07:29;4.65;;;2.60;;
20545;SDS011;10431;50.228;9.112;2023-04-25T05:10:03;5.93;;;2.63;;
20545;SDS011;10431;50.228;9.112;2023-04-25T05:13:00;5.00;;;2.53;;
20545;SDS011;10431;50.228;9.112;2023-04-25T05:15:29;6.13;;;2.15;;
20545;SDS011;10431;50.228;9.112;2023-04-25T05:18:13;8.63;;;3.42;;
20545;SDS011;10431;50.228;9.112;2023-04-25T05:20:56;14.07;;;5.45;;
20545;SDS011;10431;50.228;9.112;2023-04-25T05:23:36;11.05;;;5.10;;
20545;SDS011;10431;50.228;9.112;2023-04-25T05:26:20;10.50;;;5.30;;
20545;SDS011;10431;50.228;9.112;2023-04-25T05:29:07;16.98;;;5.95;;
20545;SDS011;10431;50.228;9.112;2023-04-25T05:31:41;15.77;;;6.35;;
20545;SDS011;10431;50.228;9.112;2023-04-25T05:34:13;10.63;;;4.85;;
20545;SDS011;10431;50.228;9.112;2023-04-25T05:36:58;10.48;;;4.55;;
20545;SDS011;10431;50.228;9.112;2023-04-25T05:39:24;13.70;;;4.40;;
20545;SDS011;10431;50.228;9.112;2023-04-25T05:42:00;13.52;;;4.28;;
20545;SDS011;10431;50.228;9.112;2023-04-25T05:44:59;8.63;;;3.35;;
20545;SDS011;10431;50.228;9.112;2023-04-25T05:47:52;6.90;;;3.22;;
20545;SDS011;10431;50.228;9.112;2023-04-25T05:50:56;9.40;;;3.28;;
20545;SDS011;10431;50.228;9.112;2023-04-25T05:53:38;6.00;;;3.13;;
20545;SDS011;10431;50.228;9.112;2023-04-25T05:56:05;9.07;;;3.40;;
20545;SDS011;10431;50.228;9.112;2023-04-25T05:58:31;6.90;;;2.85;;
20545;SDS011;10431;50.228;9.112;2023-04-25T06:00:59;10.27;;;3.50;;
20545;SDS011;10431;50.228;9.112;2023-04-25T06:03:25;9.48;;;3.72;;
20545;SDS011;10431;50.228;9.112;2023-04-25T06:05:52;9.15;;;3.17;;
20545;SDS011;10431;50.228;9.112;2023-04-25T06:08:19;5.95;;;2.75;;
20545;SDS011;10431;50.228;9.112;2023-04-25T06:10:45;7.93;;;3.30;;
20545;SDS011;10431;50.228;9.112;2023-04-25T06:13:11;10.65;;;3.45;;
20545;SDS011;10431;50.228;9.112;2023-04-25T06:15:38;7.93;;;3.40;;
20545;SDS011;10431;50.228;9.112;2023-04-25T06:18:04;6.78;;;2.85;;
20545;SDS011;10431;50.228;9.112;2023-04-25T06:20:31;8.68;;;2.92;;
20545;SDS011;10431;50.228;9.112;2023-04-25T06:22:59;7.15;;;2.67;;
20545;SDS011;10431;50.228;9.112;2023-04-25T06:25:34;28.60;;;2.92;;
20545;SDS011;10431;50.228;9.112;2023-04-25T06:28:01;7.05;;;3.05;;
20545;SDS011;10431;50.228;9.112;2023-04-25T06:30:28;7.20;;;3.10;;
20545;SDS011;10431;50.228;9.112;2023-04-25T06:33:01;10.07;;;2.65;;
20545;SDS011;10431;50.228;9.112;2023-04-25T06:35:28;9.18;;;2.95;;
20545;SDS011;10431;50.228;9.112;2023-04-25T06:37:54;15.27;;;3.00;;
20545;SDS011;10431;50.228;9.112;2023-04-25T06:40:23;11.50;;;2.80;;
20545;SDS011;10431;50.228;9.112;2023-04-25T06:42:49;20.75;;;2.88;;
20545;SDS011;10431;50.228;9.112;2023-04-25T06:45:50;15.32;;;2.92;;
20545;SDS011;10431;50.228;9.112;2023-04-25T06:48:17;11.52;;;2.70;;
20545;SDS011;10431;50.228;9.112;2023-04-25T06:50:43;10.88;;;2.92;;
20545;SDS011;10431;50.228;9.112;2023-04-25T06:53:11;14.57;;;3.15;;
20545;SDS011;10431;50.228;9.112;2023-04-25T06:55:38;12.35;;;2.70;;
20545;SDS011;10431;50.228;9.112;2023-04-25T06:58:18;9.35;;;2.67;;
20545;SDS011;10431;50.228;9.112;2023-04-25T07:01:07;8.35;;;2.63;;
20545;SDS011;10431;50.228;9.112;2023-04-25T07:03:33;7.60;;;2.80;;
20545;SDS011;10431;50.228;9.112;2023-04-25T07:06:05;13.35;;;3.22;;
20545;SDS011;10431;50.228;9.112;2023-04-25T07:08:32;14.18;;;2.60;;
20545;SDS011;10431;50.228;9.112;2023-04-25T07:10:58;10.25;;;2.88;;
20545;SDS011;10431;50.228;9.112;2023-04-25T07:13:24;10.50;;;2.55;;
20545;SDS011;10431;50.228;9.112;2023-04-25T07:15:51;8.18;;;2.78;;
20545;SDS011;10431;50.228;9.112;2023-04-25T07:18:19;8.27;;;2.33;;
20545;SDS011;10431;50.228;9.112;2023-04-25T07:20:46;13.75;;;2.70;;
20545;SDS011;10431;50.228;9.112;2023-04-25T07:23:12;17.65;;;2.90;;
20545;SDS011;10431;50.228;9.112;2023-04-25T07:25:39;10.15;;;2.97;;
20545;SDS011;10431;50.228;9.112;2023-04-25T07:28:06;10.27;;;2.58;;
20545;SDS011;10431;50.228;9.112;2023-04-25T07:30:32;18.20;;;2.90;;
20545;SDS011;10431;50.228;9.112;2023-04-25T07:33:02;9.95;;;3.00;;
20545;SDS011;10431;50.228;9.112;2023-04-25T07:35:29;12.00;;;2.55;;
20545;SDS011;10431;50.228;9.112;2023-04-25T07:37:55;10.55;;;3.30;;
20545;SDS011;10431;50.228;9.112;2023-04-25T07:40:23;11.52;;;3.10;;
20545;SDS011;10431;50.228;9.112;2023-04-25T07:42:54;13.02;;;3.45;;
20545;SDS011;10431;50.228;9.112;2023-04-25T07:45:31;11.60;;;2.80;;
20545;SDS011;10431;50.228;9.112;2023-04-25T07:47:58;13.93;;;3.13;;
20545;SDS011;10431;50.228;9.112;2023-04-25T07:50:24;7.70;;;2.70;;
20545;SDS011;10431;50.228;9.112;2023-04-25T07:52:52;8.40;;;2.90;;
20545;SDS011;10431;50.228;9.112;2023-04-25T07:55:25;13.02;;;3.17;;
20545;SDS011;10431;50.228;9.112;2023-04-25T07:58:00;9.13;;;2.80;;
20545;SDS011;10431;50.228;9.112;2023-04-25T08:00:29;7.65;;;2.70;;
20545;SDS011;10431;50.228;9.112;2023-04-25T08:03:14;9.35;;;3.25;;
20545;SDS011;10431;50.228;9.112;2023-04-25T08:05:41;12.70;;;3.22;;
20545;SDS011;10431;50.228;9.112;2023-04-25T08:08:07;12.20;;;3.08;;
20545;SDS011;10431;50.228;9.112;2023-04-25T08:10:34;7.18;;;3.20;;
20545;SDS011;10431;50.228;9.112;2023-04-25T08:13:00;10.68;;;2.97;;
20545;SDS011;10431;50.228;9.112;2023-04-25T08:15:26;14.35;;;3.28;;
20545;SDS011;10431;50.228;9.112;2023-04-25T08:17:53;13.13;;;3.15;;
20545;SDS011;10431;50.228;9.112;2023-04-25T08:20:20;12.85;;;3.38;;
20545;SDS011;10431;50.228;9.112;2023-04-25T08:22:46;11.80;;;3.33;;
20545;SDS011;10431;50.228;9.112;2023-04-25T08:25:30;15.15;;;4.45;;
20545;SDS011;10431;50.228;9.112;2023-04-25T08:27:56;8.68;;;4.32;;
20545;SDS011;10431;50.228;9.112;2023-04-25T08:30:22;9.73;;;3.92;;
20545;SDS011;10431;50.228;9.112;2023-04-25T08:32:50;5.65;;;3.55;;
20545;SDS011;10431;50.228;9.112;2023-04-25T08:35:33;13.05;;;3.35;;
20545;SDS011;10431;50.228;9.112;2023-04-25T08:38:00;5.85;;;3.42;;
20545;SDS011;10431;50.228;9.112;2023-04-25T08:40:27;6.32;;;3.42;;
20545;SDS011;10431;50.228;9.112;2023-04-25T08:43:17;8.60;;;3.30;;
20545;SDS011;10431;50.228;9.112;2023-04-25T08:45:46;5.80;;;3.00;;
20545;SDS011;10431;50.228;9.112;2023-04-25T08:48:32;6.95;;;3.38;;
20545;SDS011;10431;50.228;9.112;2023-04-25T08:50:59;6.15;;;4.15;;
20545;SDS011;10431;50.228;9.112;2023-04-25T08:53:31;9.63;;;4.22;;
20545;SDS011;10431;50.228;9.112;2023-04-25T08:56:00;13.32;;;5.22;;
20545;SDS011;10431;50.228;9.112;2023-04-25T08:58:27;9.00;;;4.80;;
20545;SDS011;10431;50.228;9.112;2023-04-25T09:00:54;9.30;;;4.10;;
20545;SDS011;10431;50.228;9.112;2023-04-25T09:03:23;8.02;;;4.00;;
20545;SDS011;10431;50.228;9.112;2023-04-25T09:05:50;7.20;;;3.83;;
20545;SDS011;10431;50.228;9.112;2023-04-25T09:08:17;6.28;;;3.20;;
20545;SDS011;10431;50.228;9.112;2023-04-25T09:10:43;6.30;;;3.15;;
20545;SDS011;10431;50.228;9.112;2023-04-25T09:13:10;6.18;;;3.22;;
20545;SDS011;10431;50.228;9.112;2023-04-25T09:16:03;6.47;;;3.30;;
20545;SDS011;10431;50.228;9.112;2023-04-25T09:18:40;10.27;;;3.28;;
20545;SDS011;10431;50.228;9.112;2023-04-25T09:21:08;10.20;;;3.40;;
20545;SDS011;10431;50.228;9.112;2023-04-25T09:23:39;7.50;;;3.25;;
20545;SDS011;10431;50.228;9.112;2023-04-25T09:26:16;6.65;;;3.25;;
20545;SDS011;10431;50.228;9.112;2023-04-25T09:28:44;6.60;;;3.40;;
20545;SDS011;10431;50.228;9.112;2023-04-25T09:31:24;4.63;;;2.90;;
20545;SDS011;10431;50.228;9.112;2023-04-25T09:33:58;6.72;;;3.05;;
20545;SDS011;10431;50.228;9.112;2023-04-25T09:36:27;4.82;;;2.95;;
20545;SDS011;10431;50.228;9.112;2023-04-25T09:39:17;6.20;;;3.30;;
20545;SDS011;10431;50.228;9.112;2023-04-25T09:41:54;8.45;;;3.20;;
20545;SDS011;10431;50.228;9.112;2023-04-25T09:44:24;10.48;;;2.80;;
20545;SDS011;10431;50.228;9.112;2023-04-25T09:46:52;9.98;;;3.42;;
20545;SDS011;10431;50.228;9.112;2023-04-25T09:49:22;8.95;;;3.50;;
20545;SDS011;10431;50.228;9.112;2023-04-25T09:51:59;7.38;;;3.20;;
20545;SDS011;10431;50.228;9.112;2023-04-25T09:54:35;9.65;;;3.20;;
20545;SDS011;10431;50.228;9.112;2023-04-25T09:57:13;8.48;;;3.78;;
20545;SDS011;10431;50.228;9.112;2023-04-25T09:59:45;8.95;;;3.20;;
20545;SDS011;10431;50.228;9.112;2023-04-25T10:02:14;10.35;;;3.65;;
20545;SDS011;10431;50.228;9.112;2023-04-25T10:04:53;6.80;;;2.60;;
20545;SDS011;10431;50.228;9.112;2023-04-25T10:07:36;4.30;;;2.80;;
20545;SDS011;10431;50.228;9.112;2023-04-25T10:10:06;7.95;;;3.25;;
20545;SDS011;10431;50.228;9.112;2023-04-25T10:12:33;5.57;;;3.00;;
20545;SDS011;10431;50.228;9.112;2023-04-25T10:14:59;4.68;;;2.70;;
20545;SDS011;10431;50.228;9.112;2023-04-25T10:17:26;6.45;;;2.92;;
20545;SDS011;10431;50.228;9.112;2023-04-25T10:19:55;6.63;;;3.10;;
20545;SDS011;10431;50.228;9.112;2023-04-25T10:25:02;7.63;;;2.80;;
20545;SDS011;10431;50.228;9.112;2023-04-25T10:27:30;5.53;;;2.95;;
20545;SDS011;10431;50.228;9.112;2023-04-25T10:30:00;6.07;;;2.80;;
20545;SDS011;10431;50.228;9.112;2023-04-25T10:32:35;3.92;;;2.60;;
20545;SDS011;10431;50.228;9.112;2023-04-25T10:35:11;4.97;;;3.00;;
20545;SDS011;10431;50.228;9.112;2023-04-25T10:37:55;3.47;;;2.90;;
20545;SDS011;10431;50.228;9.112;2023-04-25T10:40:22;6.93;;;2.97;;
20545;SDS011;10431;50.228;9.112;2023-04-25T10:42:48;8.50;;;3.00;;
20545;SDS011;10431;50.228;9.112;2023-04-25T10:45:17;5.97;;;3.08;;
20545;SDS011;10431;50.228;9.112;2023-04-25T10:47:43;6.30;;;2.80;;
20545;SDS011;10431;50.228;9.112;2023-04-25T10:50:16;6.45;;;2.80;;
20545;SDS011;10431;50.228;9.112;2023-04-25T10:52:43;4.57;;;2.97;;
20545;SDS011;10431;50.228;9.112;2023-04-25T10:55:12;5.07;;;2.60;;
20545;SDS011;10431;50.228;9.112;2023-04-25T10:57:44;4.97;;;3.17;;
20545;SDS011;10431;50.228;9.112;2023-04-25T11:00:14;4.47;;;2.85;;
20545;SDS011;10431;50.228;9.112;2023-04-25T11:02:51;4.32;;;2.95;;
20545;SDS011;10431;50.228;9.112;2023-04-25T11:05:35;6.95;;;3.53;;
20545;SDS011;10431;50.228;9.112;2023-04-25T11:08:02;7.63;;;3.17;;
20545;SDS011;10431;50.228;9.112;2023-04-25T11:10:33;8.18;;;3.50;;
20545;SDS011;10431;50.228;9.112;2023-04-25T11:13:02;7.13;;;3.17;;
20545;SDS011;10431;50.228;9.112;2023-04-25T11:15:29;7.60;;;3.25;;
20545;SDS011;10431;50.228;9.112;2023-04-25T11:17:55;8.38;;;3.30;;
20545;SDS011;10431;50.228;9.112;2023-04-25T11:20:22;8.57;;;3.13;;
20545;SDS011;10431;50.228;9.112;2023-04-25T11:22:53;6.07;;;3.25;;
20545;SDS011;10431;50.228;9.112;2023-04-25T11:25:24;5.40;;;3.20;;
20545;SDS011;10431;50.228;9.112;2023-04-25T11:27:55;11.40;;;3.90;;
20545;SDS011;10431;50.228;9.112;2023-04-25T11:30:23;10.68;;;3.17;;
20545;SDS011;10431;50.228;9.112;2023-04-25T11:32:51;16.65;;;3.53;;
20545;SDS011;10431;50.228;9.112;2023-04-25T11:35:18;21.02;;;4.10;;
20545;SDS011;10431;50.228;9.112;2023-04-25T11:37:44;13.07;;;3.88;;
20545;SDS011;10431;50.228;9.112;2023-04-25T11:40:11;10.93;;;3.38;;
20545;SDS011;10431;50.228;9.112;2023-04-25T11:42:44;9.35;;;3.30;;
20545;SDS011;10431;50.228;9.112;2023-04-25T11:45:12;14.30;;;3.20;;
20545;SDS011;10431;50.228;9.112;2023-04-25T11:47:38;17.80;;;4.00;;
20545;SDS011;10431;50.228;9.112;2023-04-25T11:50:06;10.90;;;3.75;;
20545;SDS011;10431;50.228;9.112;2023-04-25T11:55:09;17.55;;;3.60;;
20545;SDS011;10431;50.228;9.112;2023-04-25T11:57:41;15.32;;;3.30;;
20545;SDS011;10431;50.228;9.112;2023-04-25T12:00:11;16.20;;;3.20;;
20545;SDS011;10431;50.228;9.112;2023-04-25T12:02:43;11.95;;;3.20;;
20545;SDS011;10431;50.228;9.112;2023-04-25T12:05:10;10.75;;;3.22;;
20545;SDS011;10431;50.228;9.112;2023-04-25T12:07:38;14.90;;;3.13;;
20545;SDS011;10431;50.228;9.112;2023-04-25T12:10:05;17.35;;;3.83;;
20545;SDS011;10431;50.228;9.112;2023-04-25T12:12:36;16.33;;;4.15;;
20545;SDS011;10431;50.228;9.112;2023-04-25T12:15:10;15.55;;;3.90;;
20545;SDS011;10431;50.228;9.112;2023-04-25T12:17:40;16.40;;;3.75;;
20545;SDS011;10431;50.228;9.112;2023-04-25T12:20:08;24.38;;;4.18;;
20545;SDS011;10431;50.228;9.112;2023-04-25T12:22:36;26.58;;;4.13;;
20545;SDS011;10431;50.228;9.112;2023-04-25T12:25:03;24.63;;;4.10;;
20545;SDS011;10431;50.228;9.112;2023-04-25T12:27:31;20.20;;;4.03;;
20545;SDS011;10431;50.228;9.112;2023-04-25T12:29:57;17.02;;;3.63;;
20545;SDS011;10431;50.228;9.112;2023-04-25T12:32:24;16.63;;;3.95;;
20545;SDS011;10431;50.228;9.112;2023-04-25T12:34:51;12.05;;;3.25;;
20545;SDS011;10431;50.228;9.112;2023-04-25T12:37:17;15.93;;;3.95;;
20545;SDS011;10431;50.228;9.112;2023-04-25T12:39:44;25.33;;;3.75;;
20545;SDS011;10431;50.228;9.112;2023-04-25T12:42:10;15.18;;;3.28;;
20545;SDS011;10431;50.228;9.112;2023-04-25T12:44:39;13.80;;;3.35;;
20545;SDS011;10431;50.228;9.112;2023-04-25T12:47:05;13.32;;;3.03;;
20545;SDS011;10431;50.228;9.112;2023-04-25T12:49:32;14.10;;;3.17;;
20545;SDS011;10431;50.228;9.112;2023-04-25T12:51:59;10.05;;;3.15;;
20545;SDS011;10431;50.228;9.112;2023-04-25T12:54:25;14.43;;;3.25;;
20545;SDS011;10431;50.228;9.112;2023-04-25T12:56:52;11.13;;;3.03;;
20545;SDS011;10431;50.228;9.112;2023-04-25T12:59:18;14.48;;;2.90;;
20545;SDS011;10431;50.228;9.112;2023-04-25T13:01:45;14.15;;;3.03;;
20545;SDS011;10431;50.228;9.112;2023-04-25T13:04:12;15.52;;;3.22;;
20545;SDS011;10431;50.228;9.112;2023-04-25T13:06:38;16.60;;;3.50;;
20545;SDS011;10431;50.228;9.112;2023-04-25T13:09:05;9.20;;;2.45;;
20545;SDS011;10431;50.228;9.112;2023-04-25T13:11:32;12.45;;;3.25;;
20545;SDS011;10431;50.228;9.112;2023-04-25T13:13:58;10.15;;;3.47;;
20545;SDS011;10431;50.228;9.112;2023-04-25T13:16:24;8.95;;;2.72;;
20545;SDS011;10431;50.228;9.112;2023-04-25T13:18:50;15.10;;;3.58;;
20545;SDS011;10431;50.228;9.112;2023-04-25T13:21:17;11.10;;;3.08;;
20545;SDS011;10431;50.228;9.112;2023-04-25T13:23:43;12.82;;;2.95;;
20545;SDS011;10431;50.228;9.112;2023-04-25T13:26:11;13.68;;;3.10;;
20545;SDS011;10431;50.228;9.112;2023-04-25T13:28:38;11.88;;;2.95;;
20545;SDS011;10431;50.228;9.112;2023-04-25T13:31:06;12.85;;;2.88;;
20545;SDS011;10431;50.228;9.112;2023-04-25T13:33:32;10.60;;;2.88;;
20545;SDS011;10431;50.228;9.112;2023-04-25T13:36:00;12.48;;;3.67;;
20545;SDS011;10431;50.228;9.112;2023-04-25T13:38:27;16.25;;;3.60;;
20545;SDS011;10431;50.228;9.112;2023-04-25T13:40:53;17.80;;;3.83;;
20545;SDS011;10431;50.228;9.112;2023-04-25T13:43:19;12.93;;;3.80;;
20545;SDS011;10431;50.228;9.112;2023-04-25T13:45:47;16.20;;;3.95;;
20545;SDS011;10431;50.228;9.112;2023-04-25T13:48:14;14.55;;;3.88;;
20545;SDS011;10431;50.228;9.112;2023-04-25T13:50:40;15.50;;;4.15;;
20545;SDS011;10431;50.228;9.112;2023-04-25T13:53:06;19.48;;;4.10;;
20545;SDS011;10431;50.228;9.112;2023-04-25T13:55:33;14.00;;;3.90;;
20545;SDS011;10431;50.228;9.112;2023-04-25T13:58:01;17.70;;;4.32;;
20545;SDS011;10431;50.228;9.112;2023-04-25T14:00:36;18.20;;;4.53;;
20545;SDS011;10431;50.228;9.112;2023-04-25T14:03:04;16.90;;;3.97;;
20545;SDS011;10431;50.228;9.112;2023-04-25T14:05:33;15.05;;;4.03;;
20545;SDS011;10431;50.228;9.112;2023-04-25T14:08:04;12.80;;;4.10;;
20545;SDS011;10431;50.228;9.112;2023-04-25T14:10:31;15.65;;;4.05;;
20545;SDS011;10431;50.228;9.112;2023-04-25T14:12:57;9.25;;;3.63;;
20545;SDS011;10431;50.228;9.112;2023-04-25T14:15:24;14.70;;;4.05;;
20545;SDS011;10431;50.228;9.112;2023-04-25T14:17:51;14.05;;;3.55;;
20545;SDS011;10431;50.228;9.112;2023-04-25T14:20:17;18.27;;;4.63;;
20545;SDS011;10431;50.228;9.112;2023-04-25T14:22:45;15.32;;;4.93;;
20545;SDS011;10431;50.228;9.112;2023-04-25T14:25:12;19.98;;;4.90;;
20545;SDS011;10431;50.228;9.112;2023-04-25T14:27:38;18.58;;;4.22;;
20545;SDS011;10431;50.228;9.112;2023-04-25T14:30:04;13.10;;;4.20;;
20545;SDS011;10431;50.228;9.112;2023-04-25T14:32:32;18.17;;;3.65;;
20545;SDS011;10431;50.228;9.112;2023-04-25T14:34:58;20.23;;;4.38;;
20545;SDS011;10431;50.228;9.112;2023-04-25T14:37:24;22.77;;;4.55;;
20545;SDS011;10431;50.228;9.112;2023-04-25T14:39:50;31.23;;;4.45;;
20545;SDS011;10431;50.228;9.112;2023-04-25T14:42:16;19.02;;;4.57;;
20545;SDS011;10431;50.228;9.112;2023-04-25T14:44:42;26.38;;;3.90;;
20545;SDS011;10431;50.228;9.112;2023-04-25T14:47:08;17.90;;;5.50;;
20545;SDS011;10431;50.228;9.112;2023-04-25T14:49:35;23.75;;;4.03;;
20545;SDS011;10431;50.228;9.112;2023-04-25T14:52:01;26.17;;;4.10;;
20545;SDS011;10431;50.228;9.112;2023-04-25T14:54:27;29.63;;;4.85;;
20545;SDS011;10431;50.228;9.112;2023-04-25T14:56:53;29.45;;;4.43;;
20545;SDS011;10431;50.228;9.112;2023-04-25T14:59:20;21.33;;;4.78;;
20545;SDS011;10431;50.228;9.112;2023-04-25T15:01:46;23.08;;;4.45;;
20545;SDS011;10431;50.228;9.112;2023-04-25T15:04:12;24.67;;;4.70;;